Great Stukeley, United Kingdom
Current Conditions -  °F | °C
As of 4:20 PM on Monday 26 Jan 2015 (Local Time) from EGSC Reporting Station
Few Clouds Few Clouds  
Wind Chill: 38°   Ceiling: Unl
Heat Index: 45°   Visibility: 6mi
Dew Point: 36°   Wind: 14mph
Humidity: 71%   Direction: 270°W
Pressure: 30.21"   Gusts: NA
Location:  52.36°N, 0.21°W
Report Text: EGSC 261620Z 27012KT 250V320 9999 FEW028 07/02 Q1023
Loading
Personal Weather Stations






























Interactive Weather Map New forecast layout! Learn more

10-Day Weather Forecast

Advertisements
Track Severe Weather on mobile